sensor_id;sensor_type;location;lat;lon;timestamp;pressure;altitude;pressure_sealevel;temperature;humidity
9538;BME280;4807;48.024;11.726;2024-01-27T00:00:37;96518.50;;;2.32;91.23
9538;BME280;4807;48.024;11.726;2024-01-27T00:03:48;96511.06;;;2.26;90.96
9538;BME280;4807;48.024;11.726;2024-01-27T00:06:57;96509.31;;;2.14;91.42
9538;BME280;4807;48.024;11.726;2024-01-27T00:10:07;96506.41;;;2.06;91.76
9538;BME280;4807;48.024;11.726;2024-01-27T00:13:17;96499.94;;;1.99;92.74
9538;BME280;4807;48.024;11.726;2024-01-27T00:16:28;96497.13;;;2.13;92.40
9538;BME280;4807;48.024;11.726;2024-01-27T00:19:38;96500.81;;;1.86;93.95
9538;BME280;4807;48.024;11.726;2024-01-27T00:22:48;96499.13;;;1.85;94.42
9538;BME280;4807;48.024;11.726;2024-01-27T00:25:56;96498.56;;;1.69;95.91
9538;BME280;4807;48.024;11.726;2024-01-27T00:29:04;96493.72;;;2.00;96.00
9538;BME280;4807;48.024;11.726;2024-01-27T00:32:12;96486.41;;;2.16;94.81
9538;BME280;4807;48.024;11.726;2024-01-27T00:35:22;96488.41;;;2.36;93.92
9538;BME280;4807;48.024;11.726;2024-01-27T00:38:30;96485.28;;;2.31;92.54
9538;BME280;4807;48.024;11.726;2024-01-27T00:41:39;96485.94;;;2.22;93.07
9538;BME280;4807;48.024;11.726;2024-01-27T00:44:47;96499.16;;;2.33;91.80
9538;BME280;4807;48.024;11.726;2024-01-27T00:47:56;96503.97;;;2.15;92.75
9538;BME280;4807;48.024;11.726;2024-01-27T00:51:06;96500.13;;;1.96;93.46
9538;BME280;4807;48.024;11.726;2024-01-27T00:54:15;96495.41;;;2.01;93.59
9538;BME280;4807;48.024;11.726;2024-01-27T00:57:23;96505.25;;;2.10;92.51
9538;BME280;4807;48.024;11.726;2024-01-27T01:00:32;96503.75;;;1.95;93.44
9538;BME280;4807;48.024;11.726;2024-01-27T01:03:40;96516.69;;;1.72;94.24
9538;BME280;4807;48.024;11.726;2024-01-27T01:06:50;96513.47;;;1.56;94.74
9538;BME280;4807;48.024;11.726;2024-01-27T01:09:59;96525.13;;;1.77;94.68
9538;BME280;4807;48.024;11.726;2024-01-27T01:13:07;96519.25;;;1.61;94.88
9538;BME280;4807;48.024;11.726;2024-01-27T01:16:15;96520.66;;;1.54;94.58
9538;BME280;4807;48.024;11.726;2024-01-27T01:19:24;96530.91;;;1.57;94.95
9538;BME280;4807;48.024;11.726;2024-01-27T01:22:34;96521.47;;;1.42;96.25
9538;BME280;4807;48.024;11.726;2024-01-27T01:25:42;96524.22;;;1.40;95.67
9538;BME280;4807;48.024;11.726;2024-01-27T01:28:51;96531.97;;;1.42;96.01
9538;BME280;4807;48.024;11.726;2024-01-27T01:32:00;96524.22;;;1.40;96.58
9538;BME280;4807;48.024;11.726;2024-01-27T01:35:10;96527.47;;;1.44;96.22
9538;BME280;4807;48.024;11.726;2024-01-27T01:38:20;96520.63;;;1.41;97.15
9538;BME280;4807;48.024;11.726;2024-01-27T01:41:28;96518.03;;;1.29;97.45
9538;BME280;4807;48.024;11.726;2024-01-27T01:44:37;96521.81;;;1.37;97.80
9538;BME280;4807;48.024;11.726;2024-01-27T01:47:46;96525.66;;;1.57;96.06
9538;BME280;4807;48.024;11.726;2024-01-27T01:50:55;96538.91;;;1.43;96.95
9538;BME280;4807;48.024;11.726;2024-01-27T01:54:06;96525.97;;;1.65;95.69
9538;BME280;4807;48.024;11.726;2024-01-27T01:57:15;96528.81;;;1.99;92.49
9538;BME280;4807;48.024;11.726;2024-01-27T02:00:23;96536.50;;;2.02;91.24
9538;BME280;4807;48.024;11.726;2024-01-27T02:03:32;96540.47;;;2.07;90.83
9538;BME280;4807;48.024;11.726;2024-01-27T02:06:40;96545.38;;;2.12;89.98
9538;BME280;4807;48.024;11.726;2024-01-27T02:09:50;96558.81;;;1.83;91.30
9538;BME280;4807;48.024;11.726;2024-01-27T02:12:58;96559.41;;;2.00;91.56
9538;BME280;4807;48.024;11.726;2024-01-27T02:16:07;96562.72;;;2.14;90.88
9538;BME280;4807;48.024;11.726;2024-01-27T02:19:15;96552.66;;;2.08;90.52
9538;BME280;4807;48.024;11.726;2024-01-27T02:22:24;96550.34;;;2.04;89.85
9538;BME280;4807;48.024;11.726;2024-01-27T02:25:34;96558.66;;;2.10;89.54
9538;BME280;4807;48.024;11.726;2024-01-27T02:28:42;96545.91;;;2.04;88.97
9538;BME280;4807;48.024;11.726;2024-01-27T02:31:51;96563.81;;;1.99;89.77
9538;BME280;4807;48.024;11.726;2024-01-27T02:34:59;96568.03;;;2.02;88.51
9538;BME280;4807;48.024;11.726;2024-01-27T02:38:07;96551.88;;;1.82;89.71
9538;BME280;4807;48.024;11.726;2024-01-27T02:41:17;96556.28;;;1.82;90.25
9538;BME280;4807;48.024;11.726;2024-01-27T02:44:25;96568.72;;;1.67;90.21
9538;BME280;4807;48.024;11.726;2024-01-27T02:47:33;96569.44;;;1.57;91.09
9538;BME280;4807;48.024;11.726;2024-01-27T02:50:42;96566.81;;;1.69;90.91
9538;BME280;4807;48.024;11.726;2024-01-27T02:53:50;96565.53;;;1.75;90.61
9538;BME280;4807;48.024;11.726;2024-01-27T02:57:00;96559.47;;;1.62;90.67
9538;BME280;4807;48.024;11.726;2024-01-27T03:00:10;96561.88;;;1.77;90.19
9538;BME280;4807;48.024;11.726;2024-01-27T03:03:18;96567.03;;;1.66;90.39
9538;BME280;4807;48.024;11.726;2024-01-27T03:06:26;96557.41;;;1.54;90.42
9538;BME280;4807;48.024;11.726;2024-01-27T03:09:35;96580.91;;;1.43;91.25
9538;BME280;4807;48.024;11.726;2024-01-27T03:12:44;96568.28;;;1.48;91.64
9538;BME280;4807;48.024;11.726;2024-01-27T03:15:53;96573.66;;;1.59;90.82
9538;BME280;4807;48.024;11.726;2024-01-27T03:19:01;96575.94;;;1.76;89.33
9538;BME280;4807;48.024;11.726;2024-01-27T03:22:09;96586.28;;;1.54;91.16
9538;BME280;4807;48.024;11.726;2024-01-27T03:25:18;96583.34;;;1.46;91.74
9538;BME280;4807;48.024;11.726;2024-01-27T03:28:27;96593.09;;;1.44;91.45
9538;BME280;4807;48.024;11.726;2024-01-27T03:31:36;96590.66;;;1.15;92.36
9538;BME280;4807;48.024;11.726;2024-01-27T03:34:44;96599.44;;;1.14;92.87
9538;BME280;4807;48.024;11.726;2024-01-27T03:37:53;96607.13;;;1.05;93.25
9538;BME280;4807;48.024;11.726;2024-01-27T03:41:01;96617.63;;;1.05;93.39
9538;BME280;4807;48.024;11.726;2024-01-27T03:44:11;96618.03;;;1.11;93.63
9538;BME280;4807;48.024;11.726;2024-01-27T03:47:20;96617.44;;;1.21;93.00
9538;BME280;4807;48.024;11.726;2024-01-27T03:50:28;96625.03;;;0.98;93.10
9538;BME280;4807;48.024;11.726;2024-01-27T03:53:36;96637.09;;;0.88;94.62
9538;BME280;4807;48.024;11.726;2024-01-27T03:56:46;96632.84;;;0.73;95.12
9538;BME280;4807;48.024;11.726;2024-01-27T03:59:56;96633.66;;;0.73;95.00
9538;BME280;4807;48.024;11.726;2024-01-27T04:03:04;96642.03;;;0.93;94.37
9538;BME280;4807;48.024;11.726;2024-01-27T04:06:12;96633.53;;;0.89;95.21
9538;BME280;4807;48.024;11.726;2024-01-27T04:09:21;96630.09;;;1.01;95.25
9538;BME280;4807;48.024;11.726;2024-01-27T04:12:30;96638.03;;;0.87;95.20
9538;BME280;4807;48.024;11.726;2024-01-27T04:15:40;96635.41;;;0.87;95.00
9538;BME280;4807;48.024;11.726;2024-01-27T04:18:48;96639.41;;;0.93;94.14
9538;BME280;4807;48.024;11.726;2024-01-27T04:21:57;96637.47;;;0.82;95.38
9538;BME280;4807;48.024;11.726;2024-01-27T04:25:07;96639.72;;;0.88;95.17
9538;BME280;4807;48.024;11.726;2024-01-27T04:28:20;96643.38;;;0.98;94.09
9538;BME280;4807;48.024;11.726;2024-01-27T04:31:30;96642.03;;;0.93;93.40
9538;BME280;4807;48.024;11.726;2024-01-27T04:34:38;96642.66;;;0.96;93.69
9538;BME280;4807;48.024;11.726;2024-01-27T04:37:47;96641.88;;;0.82;93.54
9538;BME280;4807;48.024;11.726;2024-01-27T04:40:55;96641.25;;;0.78;94.14
9538;BME280;4807;48.024;11.726;2024-01-27T04:44:03;96646.25;;;0.68;93.60
9538;BME280;4807;48.024;11.726;2024-01-27T04:47:14;96642.72;;;0.82;93.57
9538;BME280;4807;48.024;11.726;2024-01-27T04:50:22;96656.63;;;0.70;93.53
9538;BME280;4807;48.024;11.726;2024-01-27T04:53:30;96648.66;;;0.45;94.92
9538;BME280;4807;48.024;11.726;2024-01-27T04:56:39;96656.34;;;0.33;95.85
9538;BME280;4807;48.024;11.726;2024-01-27T04:59:48;96655.72;;;0.30;95.71
9538;BME280;4807;48.024;11.726;2024-01-27T05:02:58;96660.88;;;0.17;96.67
9538;BME280;4807;48.024;11.726;2024-01-27T05:06:10;96667.63;;;0.07;96.70
9538;BME280;4807;48.024;11.726;2024-01-27T05:09:19;96671.09;;;0.08;97.29
9538;BME280;4807;48.024;11.726;2024-01-27T05:12:27;96673.97;;;0.03;97.08
9538;BME280;4807;48.024;11.726;2024-01-27T05:15:36;96671.00;;;-0.05;96.73
9538;BME280;4807;48.024;11.726;2024-01-27T05:18:46;96671.66;;;-0.02;97.69
9538;BME280;4807;48.024;11.726;2024-01-27T05:21:55;96676.50;;;0.05;97.82
9538;BME280;4807;48.024;11.726;2024-01-27T05:25:05;96680.72;;;-0.07;98.35
9538;BME280;4807;48.024;11.726;2024-01-27T05:28:14;96682.59;;;-0.23;98.21
9538;BME280;4807;48.024;11.726;2024-01-27T05:31:23;96674.56;;;-0.20;98.47
9538;BME280;4807;48.024;11.726;2024-01-27T05:34:32;96695.88;;;-0.26;98.99
9538;BME280;4807;48.024;11.726;2024-01-27T05:37:41;96694.09;;;-0.26;99.15
9538;BME280;4807;48.024;11.726;2024-01-27T05:40:49;96709.50;;;-0.35;99.05
9538;BME280;4807;48.024;11.726;2024-01-27T05:43:58;96716.44;;;-0.34;99.98
9538;BME280;4807;48.024;11.726;2024-01-27T05:47:06;96708.41;;;-0.17;99.82
9538;BME280;4807;48.024;11.726;2024-01-27T05:50:19;96705.03;;;-0.19;100.00
9538;BME280;4807;48.024;11.726;2024-01-27T05:53:28;96715.34;;;-0.16;99.95
9538;BME280;4807;48.024;11.726;2024-01-27T05:56:36;96705.97;;;-0.06;100.00
9538;BME280;4807;48.024;11.726;2024-01-27T05:59:45;96713.44;;;-0.14;99.39
9538;BME280;4807;48.024;11.726;2024-01-27T06:02:53;96721.13;;;-0.25;99.51
9538;BME280;4807;48.024;11.726;2024-01-27T06:06:04;96716.72;;;-0.11;99.83
9538;BME280;4807;48.024;11.726;2024-01-27T06:09:12;96725.91;;;-0.04;98.90
9538;BME280;4807;48.024;11.726;2024-01-27T06:12:21;96731.22;;;-0.19;99.11
9538;BME280;4807;48.024;11.726;2024-01-27T06:15:30;96732.53;;;-0.26;100.00
9538;BME280;4807;48.024;11.726;2024-01-27T06:18:39;96730.75;;;-0.26;99.43
9538;BME280;4807;48.024;11.726;2024-01-27T06:21:49;96734.38;;;-0.14;99.45
9538;BME280;4807;48.024;11.726;2024-01-27T06:24:57;96736.28;;;-0.16;99.22
9538;BME280;4807;48.024;11.726;2024-01-27T06:28:06;96739.63;;;-0.14;99.40
9538;BME280;4807;48.024;11.726;2024-01-27T06:31:16;96744.53;;;-0.08;99.01
9538;BME280;4807;48.024;11.726;2024-01-27T06:34:24;96739.31;;;-0.38;99.18
9538;BME280;4807;48.024;11.726;2024-01-27T06:37:34;96741.09;;;-0.39;99.72
9538;BME280;4807;48.024;11.726;2024-01-27T06:40:43;96758.56;;;-0.39;100.00
9538;BME280;4807;48.024;11.726;2024-01-27T06:43:51;96742.78;;;-0.38;99.46
9538;BME280;4807;48.024;11.726;2024-01-27T06:47:00;96753.84;;;-0.32;99.46
9538;BME280;4807;48.024;11.726;2024-01-27T06:50:09;96755.78;;;-0.36;100.00
9538;BME280;4807;48.024;11.726;2024-01-27T06:53:19;96763.72;;;-0.23;99.73
9538;BME280;4807;48.024;11.726;2024-01-27T06:56:28;96762.03;;;-0.39;99.59
9538;BME280;4807;48.024;11.726;2024-01-27T06:59:36;96759.41;;;-0.39;100.00
9538;BME280;4807;48.024;11.726;2024-01-27T07:02:44;96757.47;;;-0.35;99.90
9538;BME280;4807;48.024;11.726;2024-01-27T07:05:52;96764.16;;;-0.45;99.93
9538;BME280;4807;48.024;11.726;2024-01-27T07:09:03;96777.31;;;-0.47;99.89
9538;BME280;4807;48.024;11.726;2024-01-27T07:12:11;96772.41;;;-0.37;100.00
9538;BME280;4807;48.024;11.726;2024-01-27T07:15:19;96778.19;;;-0.32;100.00
9538;BME280;4807;48.024;11.726;2024-01-27T07:18:29;96775.03;;;-0.37;100.00
9538;BME280;4807;48.024;11.726;2024-01-27T07:21:37;96771.88;;;-0.14;100.00
9538;BME280;4807;48.024;11.726;2024-01-27T07:24:47;96781.50;;;-0.14;100.00
9538;BME280;4807;48.024;11.726;2024-01-27T07:27:58;96779.13;;;-0.03;99.64
9538;BME280;4807;48.024;11.726;2024-01-27T07:31:07;96783.13;;;0.03;99.83
9538;BME280;4807;48.024;11.726;2024-01-27T07:34:17;96785.84;;;0.01;99.81
9538;BME280;4807;48.024;11.726;2024-01-27T07:37:26;96782.75;;;0.09;99.92
9538;BME280;4807;48.024;11.726;2024-01-27T07:40:36;96784.09;;;0.16;100.00
9538;BME280;4807;48.024;11.726;2024-01-27T07:43:45;96778.56;;;0.20;99.69
9538;BME280;4807;48.024;11.726;2024-01-27T07:46:54;96779.41;;;0.35;100.00
9538;BME280;4807;48.024;11.726;2024-01-27T07:50:03;96789.88;;;0.49;99.25
9538;BME280;4807;48.024;11.726;2024-01-27T07:53:11;96786.31;;;0.64;97.74
9538;BME280;4807;48.024;11.726;2024-01-27T07:56:23;96778.47;;;0.91;97.44
9538;BME280;4807;48.024;11.726;2024-01-27T07:59:32;96773.69;;;1.25;98.58
9538;BME280;4807;48.024;11.726;2024-01-27T08:02:40;96779.19;;;1.61;96.67
9538;BME280;4807;48.024;11.726;2024-01-27T08:05:48;96773.34;;;1.83;95.59
9538;BME280;4807;48.024;11.726;2024-01-27T08:08:57;96773.13;;;1.99;95.33
9538;BME280;4807;48.024;11.726;2024-01-27T08:12:08;96775.88;;;2.22;94.38
9538;BME280;4807;48.024;11.726;2024-01-27T08:15:16;96769.25;;;2.42;92.27
9538;BME280;4807;48.024;11.726;2024-01-27T08:18:25;96771.13;;;2.53;90.24
9538;BME280;4807;48.024;11.726;2024-01-27T08:21:33;96773.22;;;2.60;88.53
9538;BME280;4807;48.024;11.726;2024-01-27T08:24:42;96775.28;;;2.68;88.83
9538;BME280;4807;48.024;11.726;2024-01-27T08:27:52;96781.09;;;2.73;85.43
9538;BME280;4807;48.024;11.726;2024-01-27T08:31:00;96783.19;;;2.68;86.29
9538;BME280;4807;48.024;11.726;2024-01-27T08:34:09;96779.31;;;2.74;85.88
9538;BME280;4807;48.024;11.726;2024-01-27T08:37:20;96782.44;;;2.79;86.59
9538;BME280;4807;48.024;11.726;2024-01-27T08:40:29;96777.03;;;2.93;85.27
9538;BME280;4807;48.024;11.726;2024-01-27T08:43:39;96786.00;;;2.90;84.53
9538;BME280;4807;48.024;11.726;2024-01-27T08:46:49;96796.19;;;2.95;84.16
9538;BME280;4807;48.024;11.726;2024-01-27T08:49:57;96787.34;;;2.96;85.03
9538;BME280;4807;48.024;11.726;2024-01-27T08:53:07;96794.47;;;3.06;85.43
9538;BME280;4807;48.024;11.726;2024-01-27T08:56:15;96786.63;;;3.18;82.93
9538;BME280;4807;48.024;11.726;2024-01-27T08:59:25;96792.16;;;3.15;83.17
9538;BME280;4807;48.024;11.726;2024-01-27T09:02:34;96792.31;;;3.24;84.61
9538;BME280;4807;48.024;11.726;2024-01-27T09:05:42;96796.06;;;3.33;82.11
9538;BME280;4807;48.024;11.726;2024-01-27T09:08:52;96794.91;;;3.37;81.84
9538;BME280;4807;48.024;11.726;2024-01-27T09:12:01;96798.75;;;3.44;81.71
9538;BME280;4807;48.024;11.726;2024-01-27T09:15:11;96804.69;;;3.35;81.66
9538;BME280;4807;48.024;11.726;2024-01-27T09:18:19;96810.06;;;3.33;81.50
9538;BME280;4807;48.024;11.726;2024-01-27T09:21:31;96812.13;;;3.17;80.99
9538;BME280;4807;48.024;11.726;2024-01-27T09:24:40;96809.22;;;3.33;80.85
9538;BME280;4807;48.024;11.726;2024-01-27T09:27:49;96809.97;;;3.35;80.43
9538;BME280;4807;48.024;11.726;2024-01-27T09:30:59;96805.72;;;3.45;79.44
9538;BME280;4807;48.024;11.726;2024-01-27T09:34:07;96804.50;;;3.49;80.10
9538;BME280;4807;48.024;11.726;2024-01-27T09:37:16;96806.56;;;3.45;80.21
9538;BME280;4807;48.024;11.726;2024-01-27T09:40:24;96814.28;;;3.60;78.75
9538;BME280;4807;48.024;11.726;2024-01-27T09:43:33;96817.97;;;3.57;78.18
9538;BME280;4807;48.024;11.726;2024-01-27T09:46:45;96826.94;;;3.55;77.72
9538;BME280;4807;48.024;11.726;2024-01-27T09:49:55;96826.94;;;3.55;79.13
9538;BME280;4807;48.024;11.726;2024-01-27T09:53:04;96828.63;;;3.56;79.03
9538;BME280;4807;48.024;11.726;2024-01-27T09:56:15;96828.19;;;3.62;81.96
9538;BME280;4807;48.024;11.726;2024-01-27T09:59:26;96825.25;;;3.77;82.16
9538;BME280;4807;48.024;11.726;2024-01-27T10:02:38;96835.97;;;3.87;81.62
9538;BME280;4807;48.024;11.726;2024-01-27T10:05:48;96831.25;;;4.14;86.84
9538;BME280;4807;48.024;11.726;2024-01-27T10:08:57;96827.91;;;4.12;85.81
9538;BME280;4807;48.024;11.726;2024-01-27T10:12:09;96832.81;;;4.17;84.90
9538;BME280;4807;48.024;11.726;2024-01-27T10:15:19;96826.13;;;4.24;84.88
9538;BME280;4807;48.024;11.726;2024-01-27T10:18:30;96837.53;;;4.36;83.00
9538;BME280;4807;48.024;11.726;2024-01-27T10:21:39;96823.88;;;4.42;83.47
9538;BME280;4807;48.024;11.726;2024-01-27T10:24:48;96834.81;;;4.48;80.08
9538;BME280;4807;48.024;11.726;2024-01-27T10:27:56;96830.97;;;4.41;80.44
9538;BME280;4807;48.024;11.726;2024-01-27T10:31:09;96826.75;;;4.28;82.14
9538;BME280;4807;48.024;11.726;2024-01-27T10:34:21;96823.84;;;4.19;79.59
9538;BME280;4807;48.024;11.726;2024-01-27T10:37:30;96835.59;;;4.27;79.58
9538;BME280;4807;48.024;11.726;2024-01-27T10:40:39;96814.50;;;4.27;79.43
9538;BME280;4807;48.024;11.726;2024-01-27T10:43:50;96810.91;;;4.39;81.21
9538;BME280;4807;48.024;11.726;2024-01-27T10:47:03;96802.94;;;4.51;80.45
9538;BME280;4807;48.024;11.726;2024-01-27T10:50:15;96804.47;;;4.43;79.56
9538;BME280;4807;48.024;11.726;2024-01-27T10:53:24;96796.78;;;4.29;75.80
9538;BME280;4807;48.024;11.726;2024-01-27T10:56:38;96794.88;;;4.64;80.34
9538;BME280;4807;48.024;11.726;2024-01-27T10:59:52;96796.69;;;4.86;82.48
9538;BME280;4807;48.024;11.726;2024-01-27T11:03:03;96797.06;;;4.70;75.29
9538;BME280;4807;48.024;11.726;2024-01-27T11:06:15;96789.97;;;4.71;74.12
9538;BME280;4807;48.024;11.726;2024-01-27T11:09:27;96780.75;;;4.76;75.95
9538;BME280;4807;48.024;11.726;2024-01-27T11:12:38;96778.91;;;4.88;80.28
9538;BME280;4807;48.024;11.726;2024-01-27T11:15:51;96777.38;;;4.74;76.40
9538;BME280;4807;48.024;11.726;2024-01-27T11:19:00;96789.13;;;4.92;75.29
9538;BME280;4807;48.024;11.726;2024-01-27T11:22:24;96775.94;;;4.92;72.39
9538;BME280;4807;48.024;11.726;2024-01-27T11:25:34;96777.69;;;5.14;71.70
9538;BME280;4807;48.024;11.726;2024-01-27T11:28:43;96769.78;;;5.14;69.68
9538;BME280;4807;48.024;11.726;2024-01-27T11:31:54;96763.66;;;5.14;69.65
9538;BME280;4807;48.024;11.726;2024-01-27T11:35:06;96769.31;;;4.87;69.29
9538;BME280;4807;48.024;11.726;2024-01-27T11:38:17;96768.75;;;4.50;71.21
9538;BME280;4807;48.024;11.726;2024-01-27T11:41:27;96772.81;;;4.76;69.45
9538;BME280;4807;48.024;11.726;2024-01-27T11:44:38;96770.16;;;4.87;68.76
9538;BME280;4807;48.024;11.726;2024-01-27T11:47:47;96771.84;;;4.99;70.91
9538;BME280;4807;48.024;11.726;2024-01-27T11:51:05;96773.53;;;5.01;68.62
9538;BME280;4807;48.024;11.726;2024-01-27T11:54:17;96763.19;;;4.97;68.15
9538;BME280;4807;48.024;11.726;2024-01-27T11:57:26;96765.09;;;5.07;68.86
9538;BME280;4807;48.024;11.726;2024-01-27T12:00:35;96756.97;;;5.10;67.59
9538;BME280;4807;48.024;11.726;2024-01-27T12:03:44;96761.72;;;5.27;67.81
9538;BME280;4807;48.024;11.726;2024-01-27T12:06:54;96755.38;;;5.18;68.13
9538;BME280;4807;48.024;11.726;2024-01-27T12:10:05;96752.13;;;5.26;68.32
9538;BME280;4807;48.024;11.726;2024-01-27T12:13:15;96749.81;;;5.21;69.46
9538;BME280;4807;48.024;11.726;2024-01-27T12:16:23;96748.31;;;5.08;66.49
9538;BME280;4807;48.024;11.726;2024-01-27T12:19:32;96748.06;;;5.11;67.61
9538;BME280;4807;48.024;11.726;2024-01-27T12:22:40;96746.47;;;5.19;68.19
9538;BME280;4807;48.024;11.726;2024-01-27T12:25:54;96740.38;;;5.08;66.98
9538;BME280;4807;48.024;11.726;2024-01-27T12:29:03;96731.88;;;5.04;66.34
9538;BME280;4807;48.024;11.726;2024-01-27T12:32:11;96737.38;;;5.12;66.41
9538;BME280;4807;48.024;11.726;2024-01-27T12:35:20;96744.66;;;5.20;67.74
9538;BME280;4807;48.024;11.726;2024-01-27T12:38:28;96744.66;;;5.31;65.91
9538;BME280;4807;48.024;11.726;2024-01-27T12:41:38;96741.25;;;5.40;66.13
9538;BME280;4807;48.024;11.726;2024-01-27T12:44:47;96735.38;;;5.68;65.87
9538;BME280;4807;48.024;11.726;2024-01-27T12:47:56;96726.75;;;5.66;65.43
9538;BME280;4807;48.024;11.726;2024-01-27T12:51:06;96729.63;;;5.63;65.05
9538;BME280;4807;48.024;11.726;2024-01-27T12:54:15;96716.81;;;5.59;65.58
9538;BME280;4807;48.024;11.726;2024-01-27T12:57:25;96723.81;;;5.69;64.65
9538;BME280;4807;48.024;11.726;2024-01-27T13:00:33;96702.97;;;5.66;66.39
9538;BME280;4807;48.024;11.726;2024-01-27T13:03:41;96710.16;;;5.64;65.14
9538;BME280;4807;48.024;11.726;2024-01-27T13:06:52;96706.75;;;5.73;63.79
9538;BME280;4807;48.024;11.726;2024-01-27T13:10:01;96702.31;;;5.74;64.52
9538;BME280;4807;48.024;11.726;2024-01-27T13:13:11;96701.84;;;5.69;64.29
9538;BME280;4807;48.024;11.726;2024-01-27T13:16:20;96706.88;;;5.72;63.82
9538;BME280;4807;48.024;11.726;2024-01-27T13:19:28;96702.97;;;5.66;62.17
9538;BME280;4807;48.024;11.726;2024-01-27T13:22:38;96712.78;;;5.75;64.24
9538;BME280;4807;48.024;11.726;2024-01-27T13:25:47;96719.06;;;5.84;63.92
9538;BME280;4807;48.024;11.726;2024-01-27T13:29:16;96707.72;;;5.72;62.92
9538;BME280;4807;48.024;11.726;2024-01-27T13:32:25;96713.09;;;5.82;62.91
9538;BME280;4807;48.024;11.726;2024-01-27T13:35:34;96706.13;;;5.81;63.07
9538;BME280;4807;48.024;11.726;2024-01-27T13:38:42;96700.56;;;5.84;62.59
9538;BME280;4807;48.024;11.726;2024-01-27T13:41:50;96710.75;;;6.00;61.18
9538;BME280;4807;48.024;11.726;2024-01-27T13:45:00;96713.38;;;6.00;62.84
9538;BME280;4807;48.024;11.726;2024-01-27T13:48:09;96709.75;;;6.22;61.15
9538;BME280;4807;48.024;11.726;2024-01-27T13:51:18;96708.31;;;6.38;60.27
9538;BME280;4807;48.024;11.726;2024-01-27T13:54:26;96706.69;;;6.26;61.86
9538;BME280;4807;48.024;11.726;2024-01-27T13:57:35;96704.94;;;6.06;60.82
9538;BME280;4807;48.024;11.726;2024-01-27T14:00:44;96715.97;;;5.90;61.31
9538;BME280;4807;48.024;11.726;2024-01-27T14:03:53;96705.59;;;5.87;63.01
9538;BME280;4807;48.024;11.726;2024-01-27T14:07:02;96706.66;;;5.96;61.29
9538;BME280;4807;48.024;11.726;2024-01-27T14:10:14;96708.09;;;6.00;61.20
9538;BME280;4807;48.024;11.726;2024-01-27T14:13:26;96705.16;;;6.03;60.08
9538;BME280;4807;48.024;11.726;2024-01-27T14:16:35;96695.13;;;5.97;59.48
9538;BME280;4807;48.024;11.726;2024-01-27T14:19:44;96698.91;;;5.83;61.31
9538;BME280;4807;48.024;11.726;2024-01-27T14:22:53;96704.31;;;5.82;61.46
9538;BME280;4807;48.024;11.726;2024-01-27T14:26:03;96701.19;;;5.88;61.45
9538;BME280;4807;48.024;11.726;2024-01-27T14:29:15;96716.53;;;5.94;59.48
9538;BME280;4807;48.024;11.726;2024-01-27T14:32:26;96715.72;;;5.82;60.11
9538;BME280;4807;48.024;11.726;2024-01-27T14:35:36;96716.09;;;5.78;60.73
9538;BME280;4807;48.024;11.726;2024-01-27T14:38:47;96724.22;;;5.86;59.73
9538;BME280;4807;48.024;11.726;2024-01-27T14:41:55;96718.72;;;5.89;59.81
9538;BME280;4807;48.024;11.726;2024-01-27T14:45:05;96717.13;;;5.86;59.82
9538;BME280;4807;48.024;11.726;2024-01-27T14:48:15;96717.53;;;5.82;59.93
9538;BME280;4807;48.024;11.726;2024-01-27T14:51:25;96714.81;;;5.72;59.20
9538;BME280;4807;48.024;11.726;2024-01-27T14:54:34;96707.88;;;5.60;60.41
9538;BME280;4807;48.024;11.726;2024-01-27T14:57:44;96705.41;;;5.58;62.17
9538;BME280;4807;48.024;11.726;2024-01-27T15:00:53;96703.44;;;5.60;61.15
9538;BME280;4807;48.024;11.726;2024-01-27T15:04:04;96701.41;;;5.43;61.63
9538;BME280;4807;48.024;11.726;2024-01-27T15:07:12;96701.84;;;5.48;59.78
9538;BME280;4807;48.024;11.726;2024-01-27T15:10:23;96692.00;;;5.50;59.64
9538;BME280;4807;48.024;11.726;2024-01-27T15:13:32;96680.75;;;5.37;60.51
9538;BME280;4807;48.024;11.726;2024-01-27T15:16:40;96668.56;;;5.25;60.74
9538;BME280;4807;48.024;11.726;2024-01-27T15:19:50;96660.47;;;5.06;62.03
9538;BME280;4807;48.024;11.726;2024-01-27T15:23:00;96676.72;;;4.90;61.73
9538;BME280;4807;48.024;11.726;2024-01-27T15:26:10;96674.41;;;4.96;61.41
9538;BME280;4807;48.024;11.726;2024-01-27T15:29:19;96666.56;;;4.74;62.47
9538;BME280;4807;48.024;11.726;2024-01-27T15:32:28;96670.91;;;4.53;64.10
9538;BME280;4807;48.024;11.726;2024-01-27T15:35:39;96673.06;;;4.70;62.24
9538;BME280;4807;48.024;11.726;2024-01-27T15:38:48;96668.50;;;4.50;64.43
9538;BME280;4807;48.024;11.726;2024-01-27T15:41:57;96679.91;;;4.28;64.83
9538;BME280;4807;48.024;11.726;2024-01-27T15:45:09;96674.75;;;4.27;64.66
9538;BME280;4807;48.024;11.726;2024-01-27T15:48:17;96681.22;;;4.00;66.57
9538;BME280;4807;48.024;11.726;2024-01-27T15:51:27;96685.00;;;3.74;67.96
9538;BME280;4807;48.024;11.726;2024-01-27T15:54:35;96686.16;;;3.59;69.81
9538;BME280;4807;48.024;11.726;2024-01-27T15:57:47;96689.47;;;3.38;69.16
9538;BME280;4807;48.024;11.726;2024-01-27T16:00:55;96690.84;;;3.55;71.27
9538;BME280;4807;48.024;11.726;2024-01-27T16:04:04;96686.59;;;3.41;71.48
9538;BME280;4807;48.024;11.726;2024-01-27T16:07:14;96694.59;;;3.05;72.77
9538;BME280;4807;48.024;11.726;2024-01-27T16:10:22;96696.44;;;3.16;73.49
9538;BME280;4807;48.024;11.726;2024-01-27T16:13:31;96691.75;;;3.08;74.19
9538;BME280;4807;48.024;11.726;2024-01-27T16:16:39;96689.47;;;2.67;75.99
9538;BME280;4807;48.024;11.726;2024-01-27T16:19:49;96698.03;;;2.45;76.96
9538;BME280;4807;48.024;11.726;2024-01-27T16:22:59;96701.34;;;2.23;78.41
9538;BME280;4807;48.024;11.726;2024-01-27T16:26:07;96700.22;;;2.02;79.50
9538;BME280;4807;48.024;11.726;2024-01-27T16:29:16;96696.22;;;1.84;81.18
9538;BME280;4807;48.024;11.726;2024-01-27T16:32:25;96698.81;;;1.71;82.29
9538;BME280;4807;48.024;11.726;2024-01-27T16:35:33;96707.97;;;1.66;84.17
9538;BME280;4807;48.024;11.726;2024-01-27T16:38:43;96711.34;;;1.68;84.56
9538;BME280;4807;48.024;11.726;2024-01-27T16:41:52;96712.38;;;1.65;85.06
9538;BME280;4807;48.024;11.726;2024-01-27T16:45:00;96718.47;;;1.53;86.40
9538;BME280;4807;48.024;11.726;2024-01-27T16:48:09;96718.66;;;1.50;86.49
9538;BME280;4807;48.024;11.726;2024-01-27T16:51:18;96716.53;;;1.42;86.77
9538;BME280;4807;48.024;11.726;2024-01-27T16:54:28;96723.44;;;1.31;86.76
9538;BME280;4807;48.024;11.726;2024-01-27T16:57:37;96724.44;;;1.15;87.14
9538;BME280;4807;48.024;11.726;2024-01-27T17:00:45;96718.41;;;1.01;87.72
9538;BME280;4807;48.024;11.726;2024-01-27T17:03:54;96725.41;;;0.88;87.91
9538;BME280;4807;48.024;11.726;2024-01-27T17:07:03;96738.63;;;0.86;87.77